sensor_id;sensor_type;location;lat;lon;timestamp;temperature;humidity
18365;DHT22;9309;52.126;11.616;2023-02-04T00:01:29;4.00;84.20
18365;DHT22;9309;52.126;11.616;2023-02-04T00:03:55;3.80;84.70
18365;DHT22;9309;52.126;11.616;2023-02-04T00:06:22;3.80;84.60
18365;DHT22;9309;52.126;11.616;2023-02-04T00:08:49;3.70;84.60
18365;DHT22;9309;52.126;11.616;2023-02-04T00:11:16;3.70;84.10
18365;DHT22;9309;52.126;11.616;2023-02-04T00:13:44;3.80;83.40
18365;DHT22;9309;52.126;11.616;2023-02-04T00:16:25;3.80;83.90
18365;DHT22;9309;52.126;11.616;2023-02-04T00:19:34;3.80;83.20
18365;DHT22;9309;52.126;11.616;2023-02-04T00:22:01;3.70;83.60
18365;DHT22;9309;52.126;11.616;2023-02-04T00:24:31;3.70;83.40
18365;DHT22;9309;52.126;11.616;2023-02-04T00:26:58;3.70;83.30
18365;DHT22;9309;52.126;11.616;2023-02-04T00:29:26;3.50;83.40
18365;DHT22;9309;52.126;11.616;2023-02-04T00:31:52;3.40;83.60
18365;DHT22;9309;52.126;11.616;2023-02-04T00:34:19;3.30;83.30
18365;DHT22;9309;52.126;11.616;2023-02-04T00:36:46;3.20;83.90
18365;DHT22;9309;52.126;11.616;2023-02-04T00:39:13;3.20;84.50
18365;DHT22;9309;52.126;11.616;2023-02-04T00:41:40;3.30;83.90
18365;DHT22;9309;52.126;11.616;2023-02-04T00:44:06;3.40;84.10
18365;DHT22;9309;52.126;11.616;2023-02-04T00:46:34;3.40;83.50
18365;DHT22;9309;52.126;11.616;2023-02-04T00:49:03;3.40;83.20
18365;DHT22;9309;52.126;11.616;2023-02-04T00:51:31;3.40;83.50
18365;DHT22;9309;52.126;11.616;2023-02-04T00:53:57;3.30;83.20
18365;DHT22;9309;52.126;11.616;2023-02-04T00:56:24;3.20;83.80
18365;DHT22;9309;52.126;11.616;2023-02-04T00:58:51;3.10;83.30
18365;DHT22;9309;52.126;11.616;2023-02-04T01:01:17;3.00;84.40
18365;DHT22;9309;52.126;11.616;2023-02-04T01:03:47;3.00;85.30
18365;DHT22;9309;52.126;11.616;2023-02-04T01:06:14;2.90;85.10
18365;DHT22;9309;52.126;11.616;2023-02-04T01:08:41;2.90;84.90
18365;DHT22;9309;52.126;11.616;2023-02-04T01:11:07;2.80;85.10
18365;DHT22;9309;52.126;11.616;2023-02-04T01:13:34;2.80;84.90
18365;DHT22;9309;52.126;11.616;2023-02-04T01:16:01;2.80;85.00
18365;DHT22;9309;52.126;11.616;2023-02-04T01:18:27;2.90;84.90
18365;DHT22;9309;52.126;11.616;2023-02-04T01:20:55;2.90;84.70
18365;DHT22;9309;52.126;11.616;2023-02-04T01:23:22;2.80;84.70
18365;DHT22;9309;52.126;11.616;2023-02-04T01:25:48;2.80;85.30
18365;DHT22;9309;52.126;11.616;2023-02-04T01:28:15;2.80;85.30
18365;DHT22;9309;52.126;11.616;2023-02-04T01:30:42;2.90;85.30
18365;DHT22;9309;52.126;11.616;2023-02-04T01:33:08;2.80;85.60
18365;DHT22;9309;52.126;11.616;2023-02-04T01:35:35;2.80;86.00
18365;DHT22;9309;52.126;11.616;2023-02-04T01:38:03;2.80;86.20
18365;DHT22;9309;52.126;11.616;2023-02-04T01:40:31;2.90;86.00
18365;DHT22;9309;52.126;11.616;2023-02-04T01:42:57;2.90;85.40
18365;DHT22;9309;52.126;11.616;2023-02-04T01:45:24;2.90;85.50
18365;DHT22;9309;52.126;11.616;2023-02-04T01:47:52;3.00;84.60
18365;DHT22;9309;52.126;11.616;2023-02-04T01:50:19;3.00;86.10
18365;DHT22;9309;52.126;11.616;2023-02-04T01:52:46;2.90;85.10
18365;DHT22;9309;52.126;11.616;2023-02-04T01:55:17;2.80;85.60
18365;DHT22;9309;52.126;11.616;2023-02-04T01:57:44;2.80;85.80
18365;DHT22;9309;52.126;11.616;2023-02-04T02:00:15;2.80;85.80
18365;DHT22;9309;52.126;11.616;2023-02-04T02:02:44;2.80;85.30
18365;DHT22;9309;52.126;11.616;2023-02-04T02:05:14;2.80;86.10
18365;DHT22;9309;52.126;11.616;2023-02-04T02:07:41;2.70;86.10
18365;DHT22;9309;52.126;11.616;2023-02-04T02:10:10;2.70;86.60
18365;DHT22;9309;52.126;11.616;2023-02-04T02:12:39;2.70;87.00
18365;DHT22;9309;52.126;11.616;2023-02-04T02:15:08;2.70;87.20
18365;DHT22;9309;52.126;11.616;2023-02-04T02:17:35;2.70;87.40
18365;DHT22;9309;52.126;11.616;2023-02-04T02:20:04;2.60;87.10
18365;DHT22;9309;52.126;11.616;2023-02-04T02:22:35;2.60;87.50
18365;DHT22;9309;52.126;11.616;2023-02-04T02:25:10;2.50;87.40
18365;DHT22;9309;52.126;11.616;2023-02-04T02:27:37;2.50;88.10
18365;DHT22;9309;52.126;11.616;2023-02-04T02:30:04;2.60;88.10
18365;DHT22;9309;52.126;11.616;2023-02-04T02:32:31;2.70;87.70
18365;DHT22;9309;52.126;11.616;2023-02-04T02:34:58;2.70;87.50
18365;DHT22;9309;52.126;11.616;2023-02-04T02:37:26;2.70;87.50
18365;DHT22;9309;52.126;11.616;2023-02-04T02:39:53;2.80;87.60
18365;DHT22;9309;52.126;11.616;2023-02-04T02:42:22;2.80;86.90
18365;DHT22;9309;52.126;11.616;2023-02-04T02:44:49;2.80;87.20
18365;DHT22;9309;52.126;11.616;2023-02-04T02:47:18;2.80;87.10
18365;DHT22;9309;52.126;11.616;2023-02-04T02:49:46;2.80;86.90
18365;DHT22;9309;52.126;11.616;2023-02-04T02:52:14;2.90;87.00
18365;DHT22;9309;52.126;11.616;2023-02-04T02:54:41;2.90;86.50
18365;DHT22;9309;52.126;11.616;2023-02-04T02:57:12;2.90;86.50
18365;DHT22;9309;52.126;11.616;2023-02-04T02:59:41;2.90;86.20
18365;DHT22;9309;52.126;11.616;2023-02-04T03:02:09;2.80;86.60
18365;DHT22;9309;52.126;11.616;2023-02-04T03:04:39;2.80;87.00
18365;DHT22;9309;52.126;11.616;2023-02-04T03:07:09;2.80;86.80
18365;DHT22;9309;52.126;11.616;2023-02-04T03:09:36;3.00;86.00
18365;DHT22;9309;52.126;11.616;2023-02-04T03:12:04;3.10;85.30
18365;DHT22;9309;52.126;11.616;2023-02-04T03:14:33;3.20;85.70
18365;DHT22;9309;52.126;11.616;2023-02-04T03:17:02;3.20;85.30
18365;DHT22;9309;52.126;11.616;2023-02-04T03:19:29;3.10;85.20
18365;DHT22;9309;52.126;11.616;2023-02-04T03:21:57;3.00;85.40
18365;DHT22;9309;52.126;11.616;2023-02-04T03:24:25;2.90;86.10
18365;DHT22;9309;52.126;11.616;2023-02-04T03:26:52;3.10;85.60
18365;DHT22;9309;52.126;11.616;2023-02-04T03:29:18;3.10;85.40
18365;DHT22;9309;52.126;11.616;2023-02-04T03:31:45;3.10;84.90
18365;DHT22;9309;52.126;11.616;2023-02-04T03:34:13;3.10;85.20
18365;DHT22;9309;52.126;11.616;2023-02-04T03:36:40;3.10;85.30
18365;DHT22;9309;52.126;11.616;2023-02-04T03:39:06;3.10;85.30
18365;DHT22;9309;52.126;11.616;2023-02-04T03:41:33;3.00;85.10
18365;DHT22;9309;52.126;11.616;2023-02-04T03:44:00;2.90;86.10
18365;DHT22;9309;52.126;11.616;2023-02-04T03:46:26;3.00;85.90
18365;DHT22;9309;52.126;11.616;2023-02-04T03:48:53;3.10;86.20
18365;DHT22;9309;52.126;11.616;2023-02-04T03:51:21;3.10;85.90
18365;DHT22;9309;52.126;11.616;2023-02-04T03:53:48;2.90;86.40
18365;DHT22;9309;52.126;11.616;2023-02-04T03:56:15;2.90;86.90
18365;DHT22;9309;52.126;11.616;2023-02-04T03:58:41;2.90;86.70
18365;DHT22;9309;52.126;11.616;2023-02-04T04:01:08;3.10;86.50
18365;DHT22;9309;52.126;11.616;2023-02-04T04:03:35;3.10;85.80
18365;DHT22;9309;52.126;11.616;2023-02-04T04:06:01;3.00;86.30
18365;DHT22;9309;52.126;11.616;2023-02-04T04:08:32;2.80;86.30
18365;DHT22;9309;52.126;11.616;2023-02-04T04:10:58;2.70;87.30
18365;DHT22;9309;52.126;11.616;2023-02-04T04:13:25;2.70;86.90
18365;DHT22;9309;52.126;11.616;2023-02-04T04:15:52;2.60;87.00
18365;DHT22;9309;52.126;11.616;2023-02-04T04:18:18;2.60;87.10
18365;DHT22;9309;52.126;11.616;2023-02-04T04:20:45;2.60;86.90
18365;DHT22;9309;52.126;11.616;2023-02-04T04:23:12;2.40;87.90
18365;DHT22;9309;52.126;11.616;2023-02-04T04:25:39;2.40;88.50
18365;DHT22;9309;52.126;11.616;2023-02-04T04:28:06;2.30;88.60
18365;DHT22;9309;52.126;11.616;2023-02-04T04:30:33;2.20;89.00
18365;DHT22;9309;52.126;11.616;2023-02-04T04:32:59;2.20;89.70
18365;DHT22;9309;52.126;11.616;2023-02-04T04:35:26;2.20;89.80
18365;DHT22;9309;52.126;11.616;2023-02-04T04:37:53;2.20;89.50
18365;DHT22;9309;52.126;11.616;2023-02-04T04:40:19;2.10;89.60
18365;DHT22;9309;52.126;11.616;2023-02-04T04:42:47;2.00;90.00
18365;DHT22;9309;52.126;11.616;2023-02-04T04:45:14;2.00;90.10
18365;DHT22;9309;52.126;11.616;2023-02-04T04:47:40;1.90;90.30
18365;DHT22;9309;52.126;11.616;2023-02-04T04:50:08;1.90;90.40
18365;DHT22;9309;52.126;11.616;2023-02-04T04:52:34;1.90;90.20
18365;DHT22;9309;52.126;11.616;2023-02-04T04:55:01;1.90;90.40
18365;DHT22;9309;52.126;11.616;2023-02-04T04:57:28;1.90;90.60
18365;DHT22;9309;52.126;11.616;2023-02-04T04:59:56;1.90;90.50
18365;DHT22;9309;52.126;11.616;2023-02-04T05:02:23;1.90;90.50
18365;DHT22;9309;52.126;11.616;2023-02-04T05:04:49;1.80;90.10
18365;DHT22;9309;52.126;11.616;2023-02-04T05:07:16;1.70;90.40
18365;DHT22;9309;52.126;11.616;2023-02-04T05:09:43;1.80;90.50
18365;DHT22;9309;52.126;11.616;2023-02-04T05:12:09;1.70;90.70
18365;DHT22;9309;52.126;11.616;2023-02-04T05:14:36;1.60;91.10
18365;DHT22;9309;52.126;11.616;2023-02-04T05:17:04;1.60;91.10
18365;DHT22;9309;52.126;11.616;2023-02-04T05:19:31;1.70;90.90
18365;DHT22;9309;52.126;11.616;2023-02-04T05:21:58;1.70;90.50
18365;DHT22;9309;52.126;11.616;2023-02-04T05:24:26;1.60;90.70
18365;DHT22;9309;52.126;11.616;2023-02-04T05:26:52;1.70;90.50
18365;DHT22;9309;52.126;11.616;2023-02-04T05:29:19;1.50;90.90
18365;DHT22;9309;52.126;11.616;2023-02-04T05:31:46;1.50;91.20
18365;DHT22;9309;52.126;11.616;2023-02-04T05:34:14;1.40;91.10
18365;DHT22;9309;52.126;11.616;2023-02-04T05:36:40;1.40;91.20
18365;DHT22;9309;52.126;11.616;2023-02-04T05:39:07;1.30;91.70
18365;DHT22;9309;52.126;11.616;2023-02-04T05:41:33;1.30;92.40
18365;DHT22;9309;52.126;11.616;2023-02-04T05:44:00;1.40;91.90
18365;DHT22;9309;52.126;11.616;2023-02-04T05:46:27;1.40;91.60
18365;DHT22;9309;52.126;11.616;2023-02-04T05:48:53;1.40;92.10
18365;DHT22;9309;52.126;11.616;2023-02-04T05:51:21;1.50;91.70
18365;DHT22;9309;52.126;11.616;2023-02-04T05:53:48;1.40;91.50
18365;DHT22;9309;52.126;11.616;2023-02-04T05:56:15;1.40;91.70
18365;DHT22;9309;52.126;11.616;2023-02-04T05:58:41;1.30;91.80
18365;DHT22;9309;52.126;11.616;2023-02-04T06:01:08;1.40;91.50
18365;DHT22;9309;52.126;11.616;2023-02-04T06:03:35;1.30;91.70
18365;DHT22;9309;52.126;11.616;2023-02-04T06:06:01;1.40;91.60
18365;DHT22;9309;52.126;11.616;2023-02-04T06:08:29;1.30;91.10
18365;DHT22;9309;52.126;11.616;2023-02-04T06:10:56;1.20;91.80
18365;DHT22;9309;52.126;11.616;2023-02-04T06:13:23;1.10;92.70
18365;DHT22;9309;52.126;11.616;2023-02-04T06:15:49;1.30;92.00
18365;DHT22;9309;52.126;11.616;2023-02-04T06:18:16;1.20;92.10
18365;DHT22;9309;52.126;11.616;2023-02-04T06:20:43;1.10;92.20
18365;DHT22;9309;52.126;11.616;2023-02-04T06:23:09;1.10;92.50
18365;DHT22;9309;52.126;11.616;2023-02-04T06:25:37;1.20;92.40
18365;DHT22;9309;52.126;11.616;2023-02-04T06:28:04;1.10;92.60
18365;DHT22;9309;52.126;11.616;2023-02-04T06:30:30;1.10;92.70
18365;DHT22;9309;52.126;11.616;2023-02-04T06:32:57;1.00;93.10
18365;DHT22;9309;52.126;11.616;2023-02-04T06:35:24;1.10;92.80
18365;DHT22;9309;52.126;11.616;2023-02-04T06:37:50;1.00;93.20
18365;DHT22;9309;52.126;11.616;2023-02-04T06:40:17;1.00;93.30
18365;DHT22;9309;52.126;11.616;2023-02-04T06:42:45;1.10;93.00
18365;DHT22;9309;52.126;11.616;2023-02-04T06:45:12;1.00;93.20
18365;DHT22;9309;52.126;11.616;2023-02-04T06:47:38;1.00;93.10
18365;DHT22;9309;52.126;11.616;2023-02-04T06:50:06;0.90;93.50
18365;DHT22;9309;52.126;11.616;2023-02-04T06:52:32;0.90;93.40
18365;DHT22;9309;52.126;11.616;2023-02-04T06:54:59;1.00;93.50
18365;DHT22;9309;52.126;11.616;2023-02-04T06:57:25;1.00;93.40
18365;DHT22;9309;52.126;11.616;2023-02-04T06:59:53;0.90;93.50
18365;DHT22;9309;52.126;11.616;2023-02-04T07:02:20;1.00;93.30
18365;DHT22;9309;52.126;11.616;2023-02-04T07:04:47;1.20;92.90
18365;DHT22;9309;52.126;11.616;2023-02-04T07:07:13;1.10;92.80
18365;DHT22;9309;52.126;11.616;2023-02-04T07:09:40;1.20;92.50
18365;DHT22;9309;52.126;11.616;2023-02-04T07:12:07;1.10;92.40
18365;DHT22;9309;52.126;11.616;2023-02-04T07:14:33;1.00;92.80
18365;DHT22;9309;52.126;11.616;2023-02-04T07:17:01;1.00;93.10
18365;DHT22;9309;52.126;11.616;2023-02-04T07:19:28;1.10;93.30
18365;DHT22;9309;52.126;11.616;2023-02-04T07:21:55;1.20;92.60
18365;DHT22;9309;52.126;11.616;2023-02-04T07:24:22;1.10;92.20
18365;DHT22;9309;52.126;11.616;2023-02-04T07:26:48;1.20;92.00
18365;DHT22;9309;52.126;11.616;2023-02-04T07:29:15;1.30;92.20
18365;DHT22;9309;52.126;11.616;2023-02-04T07:31:42;1.30;91.60
18365;DHT22;9309;52.126;11.616;2023-02-04T07:34:11;1.40;91.40
18365;DHT22;9309;52.126;11.616;2023-02-04T07:36:38;1.40;91.00
18365;DHT22;9309;52.126;11.616;2023-02-04T07:39:04;1.40;90.50
18365;DHT22;9309;52.126;11.616;2023-02-04T07:41:31;1.50;91.10
18365;DHT22;9309;52.126;11.616;2023-02-04T07:43:58;1.60;90.30
18365;DHT22;9309;52.126;11.616;2023-02-04T07:46:25;1.50;90.00
18365;DHT22;9309;52.126;11.616;2023-02-04T07:48:51;1.50;90.80
18365;DHT22;9309;52.126;11.616;2023-02-04T07:51:19;1.70;90.40
18365;DHT22;9309;52.126;11.616;2023-02-04T07:53:46;2.00;89.90
18365;DHT22;9309;52.126;11.616;2023-02-04T07:56:13;1.80;88.60
18365;DHT22;9309;52.126;11.616;2023-02-04T07:58:39;1.90;89.20
18365;DHT22;9309;52.126;11.616;2023-02-04T08:01:06;2.10;88.70
18365;DHT22;9309;52.126;11.616;2023-02-04T08:03:33;2.20;87.40
18365;DHT22;9309;52.126;11.616;2023-02-04T08:05:59;2.10;86.80
18365;DHT22;9309;52.126;11.616;2023-02-04T08:08:28;2.10;86.80
18365;DHT22;9309;52.126;11.616;2023-02-04T08:10:54;2.10;88.00
18365;DHT22;9309;52.126;11.616;2023-02-04T08:13:21;2.20;85.80
18365;DHT22;9309;52.126;11.616;2023-02-04T08:15:48;2.30;86.40
18365;DHT22;9309;52.126;11.616;2023-02-04T08:18:14;2.80;83.90
18365;DHT22;9309;52.126;11.616;2023-02-04T08:20:41;3.60;81.40
18365;DHT22;9309;52.126;11.616;2023-02-04T08:23:08;4.70;78.10
18365;DHT22;9309;52.126;11.616;2023-02-04T08:25:36;5.70;73.50
18365;DHT22;9309;52.126;11.616;2023-02-04T08:28:03;6.20;69.30
18365;DHT22;9309;52.126;11.616;2023-02-04T08:30:30;6.00;68.20
18365;DHT22;9309;52.126;11.616;2023-02-04T08:32:56;5.90;69.60
18365;DHT22;9309;52.126;11.616;2023-02-04T08:35:23;6.00;67.30
18365;DHT22;9309;52.126;11.616;2023-02-04T08:37:49;6.00;67.30
18365;DHT22;9309;52.126;11.616;2023-02-04T08:40:17;6.20;66.70
18365;DHT22;9309;52.126;11.616;2023-02-04T08:42:45;6.00;67.70
18365;DHT22;9309;52.126;11.616;2023-02-04T08:45:12;6.90;65.40
18365;DHT22;9309;52.126;11.616;2023-02-04T08:47:39;7.60;61.00
18365;DHT22;9309;52.126;11.616;2023-02-04T08:50:07;7.20;62.60
18365;DHT22;9309;52.126;11.616;2023-02-04T08:52:34;7.20;61.70
18365;DHT22;9309;52.126;11.616;2023-02-04T08:55:01;7.30;62.10
18365;DHT22;9309;52.126;11.616;2023-02-04T08:57:28;7.10;60.90
18365;DHT22;9309;52.126;11.616;2023-02-04T08:59:56;6.60;64.40
18365;DHT22;9309;52.126;11.616;2023-02-04T09:02:22;7.40;59.80
18365;DHT22;9309;52.126;11.616;2023-02-04T09:04:49;7.10;60.00
18365;DHT22;9309;52.126;11.616;2023-02-04T09:07:16;7.40;60.60
18365;DHT22;9309;52.126;11.616;2023-02-04T09:09:43;8.80;57.10
18365;DHT22;9309;52.126;11.616;2023-02-04T09:12:09;9.40;53.90
18365;DHT22;9309;52.126;11.616;2023-02-04T09:14:36;9.80;53.80
18365;DHT22;9309;52.126;11.616;2023-02-04T09:17:04;10.30;51.70
18365;DHT22;9309;52.126;11.616;2023-02-04T09:19:32;10.60;50.40
18365;DHT22;9309;52.126;11.616;2023-02-04T09:21:58;11.60;47.50
18365;DHT22;9309;52.126;11.616;2023-02-04T09:24:25;11.90;47.10
18365;DHT22;9309;52.126;11.616;2023-02-04T09:26:52;12.10;46.90
18365;DHT22;9309;52.126;11.616;2023-02-04T09:29:19;10.60;48.20
18365;DHT22;9309;52.126;11.616;2023-02-04T09:31:46;9.40;50.30
18365;DHT22;9309;52.126;11.616;2023-02-04T09:34:14;7.50;56.70
18365;DHT22;9309;52.126;11.616;2023-02-04T09:36:42;6.20;60.10
18365;DHT22;9309;52.126;11.616;2023-02-04T09:39:09;5.50;64.10
18365;DHT22;9309;52.126;11.616;2023-02-04T09:41:37;5.10;65.80
18365;DHT22;9309;52.126;11.616;2023-02-04T09:44:10;5.20;67.00
18365;DHT22;9309;52.126;11.616;2023-02-04T09:46:38;5.70;66.70
18365;DHT22;9309;52.126;11.616;2023-02-04T09:49:04;6.10;63.50
18365;DHT22;9309;52.126;11.616;2023-02-04T09:51:33;5.90;63.20
18365;DHT22;9309;52.126;11.616;2023-02-04T09:54:05;5.80;64.70
18365;DHT22;9309;52.126;11.616;2023-02-04T09:56:32;6.10;64.40
18365;DHT22;9309;52.126;11.616;2023-02-04T09:58:59;6.70;62.00
18365;DHT22;9309;52.126;11.616;2023-02-04T10:01:26;7.20;61.00
18365;DHT22;9309;52.126;11.616;2023-02-04T10:03:56;7.40;59.80
18365;DHT22;9309;52.126;11.616;2023-02-04T10:06:26;7.30;59.70
18365;DHT22;9309;52.126;11.616;2023-02-04T10:08:54;6.80;60.40
18365;DHT22;9309;52.126;11.616;2023-02-04T10:11:23;6.30;62.70
18365;DHT22;9309;52.126;11.616;2023-02-04T10:13:53;7.00;61.50
18365;DHT22;9309;52.126;11.616;2023-02-04T10:16:23;7.70;57.90
18365;DHT22;9309;52.126;11.616;2023-02-04T10:18:54;8.00;57.90
18365;DHT22;9309;52.126;11.616;2023-02-04T10:21:24;9.10;55.70
18365;DHT22;9309;52.126;11.616;2023-02-04T10:23:56;8.40;55.40
18365;DHT22;9309;52.126;11.616;2023-02-04T10:26:25;8.60;55.00
18365;DHT22;9309;52.126;11.616;2023-02-04T10:28:57;9.90;52.90
18365;DHT22;9309;52.126;11.616;2023-02-04T10:31:30;10.20;50.10
18365;DHT22;9309;52.126;11.616;2023-02-04T10:34:11;11.10;49.50
18365;DHT22;9309;52.126;11.616;2023-02-04T10:36:39;12.80;46.30
18365;DHT22;9309;52.126;11.616;2023-02-04T10:39:11;13.10;43.60
18365;DHT22;9309;52.126;11.616;2023-02-04T10:41:38;13.30;41.90
18365;DHT22;9309;52.126;11.616;2023-02-04T10:44:11;11.90;43.80
18365;DHT22;9309;52.126;11.616;2023-02-04T10:46:38;10.90;46.60
18365;DHT22;9309;52.126;11.616;2023-02-04T10:49:12;10.90;47.00
18365;DHT22;9309;52.126;11.616;2023-02-04T10:51:41;9.80;50.00
18365;DHT22;9309;52.126;11.616;2023-02-04T10:54:11;10.40;48.90
18365;DHT22;9309;52.126;11.616;2023-02-04T10:56:58;10.70;47.80
18365;DHT22;9309;52.126;11.616;2023-02-04T10:59:25;11.70;45.50
18365;DHT22;9309;52.126;11.616;2023-02-04T11:01:54;11.10;45.50
18365;DHT22;9309;52.126;11.616;2023-02-04T11:04:21;11.30;45.60
18365;DHT22;9309;52.126;11.616;2023-02-04T11:06:49;10.90;46.40
18365;DHT22;9309;52.126;11.616;2023-02-04T11:09:17;10.70;48.10
18365;DHT22;9309;52.126;11.616;2023-02-04T11:11:45;9.50;48.20
18365;DHT22;9309;52.126;11.616;2023-02-04T11:14:23;9.70;48.50
18365;DHT22;9309;52.126;11.616;2023-02-04T11:16:50;10.00;47.80
18365;DHT22;9309;52.126;11.616;2023-02-04T11:19:34;10.00;48.90
18365;DHT22;9309;52.126;11.616;2023-02-04T11:22:20;10.00;49.40
18365;DHT22;9309;52.126;11.616;2023-02-04T11:24:49;9.50;50.00
18365;DHT22;9309;52.126;11.616;2023-02-04T11:27:22;8.70;51.30
18365;DHT22;9309;52.126;11.616;2023-02-04T11:29:50;8.00;52.80
18365;DHT22;9309;52.126;11.616;2023-02-04T11:32:28;7.40;53.70
18365;DHT22;9309;52.126;11.616;2023-02-04T11:35:20;7.30;55.40
18365;DHT22;9309;52.126;11.616;2023-02-04T11:37:47;7.10;55.20
18365;DHT22;9309;52.126;11.616;2023-02-04T11:40:25;7.20;54.90
18365;DHT22;9309;52.126;11.616;2023-02-04T11:42:57;7.40;54.30
18365;DHT22;9309;52.126;11.616;2023-02-04T11:45:27;7.10;53.60
18365;DHT22;9309;52.126;11.616;2023-02-04T11:47:56;6.80;55.10
18365;DHT22;9309;52.126;11.616;2023-02-04T11:50:26;6.40;57.70
18365;DHT22;9309;52.126;11.616;2023-02-04T11:52:55;6.30;57.70
18365;DHT22;9309;52.126;11.616;2023-02-04T11:55:23;6.10;59.30
18365;DHT22;9309;52.126;11.616;2023-02-04T11:57:52;6.20;59.60
18365;DHT22;9309;52.126;11.616;2023-02-04T12:00:21;6.30;58.60
18365;DHT22;9309;52.126;11.616;2023-02-04T12:02:49;6.40;57.30
18365;DHT22;9309;52.126;11.616;2023-02-04T12:05:18;6.20;57.10
18365;DHT22;9309;52.126;11.616;2023-02-04T12:07:46;6.00;59.70
18365;DHT22;9309;52.126;11.616;2023-02-04T12:10:23;6.10;59.40
18365;DHT22;9309;52.126;11.616;2023-02-04T12:12:53;6.30;58.00
18365;DHT22;9309;52.126;11.616;2023-02-04T12:15:23;6.20;58.50
18365;DHT22;9309;52.126;11.616;2023-02-04T12:18:01;6.20;58.60
18365;DHT22;9309;52.126;11.616;2023-02-04T12:20:28;6.10;58.90
18365;DHT22;9309;52.126;11.616;2023-02-04T12:22:55;5.90;59.70
18365;DHT22;9309;52.126;11.616;2023-02-04T12:25:24;5.60;59.60
18365;DHT22;9309;52.126;11.616;2023-02-04T12:27:51;5.40;59.00
18365;DHT22;9309;52.126;11.616;2023-02-04T12:30:19;5.40;60.10
18365;DHT22;9309;52.126;11.616;2023-02-04T12:32:46;5.40;60.10
18365;DHT22;9309;52.126;11.616;2023-02-04T12:35:13;5.20;59.40
18365;DHT22;9309;52.126;11.616;2023-02-04T12:37:39;5.00;61.40
18365;DHT22;9309;52.126;11.616;2023-02-04T12:40:07;5.00;60.60
18365;DHT22;9309;52.126;11.616;2023-02-04T12:42:35;5.10;60.20
18365;DHT22;9309;52.126;11.616;2023-02-04T12:45:02;5.20;57.90
18365;DHT22;9309;52.126;11.616;2023-02-04T12:47:29;5.20;57.70
18365;DHT22;9309;52.126;11.616;2023-02-04T12:49:56;5.20;57.90
18365;DHT22;9309;52.126;11.616;2023-02-04T12:52:22;5.30;58.30
18365;DHT22;9309;52.126;11.616;2023-02-04T12:54:49;5.20;59.10
18365;DHT22;9309;52.126;11.616;2023-02-04T12:57:16;5.20;58.60
18365;DHT22;9309;52.126;11.616;2023-02-04T12:59:45;5.30;57.90
18365;DHT22;9309;52.126;11.616;2023-02-04T13:02:13;5.40;57.80
18365;DHT22;9309;52.126;11.616;2023-02-04T13:04:40;5.50;58.90
18365;DHT22;9309;52.126;11.616;2023-02-04T13:07:07;5.50;58.60
18365;DHT22;9309;52.126;11.616;2023-02-04T13:09:34;5.50;58.00
18365;DHT22;9309;52.126;11.616;2023-02-04T13:12:01;5.80;56.60
18365;DHT22;9309;52.126;11.616;2023-02-04T13:14:28;5.80;57.40
18365;DHT22;9309;52.126;11.616;2023-02-04T13:16:58;5.70;56.80
18365;DHT22;9309;52.126;11.616;2023-02-04T13:19:24;5.70;56.90
18365;DHT22;9309;52.126;11.616;2023-02-04T13:21:51;5.70;56.00
18365;DHT22;9309;52.126;11.616;2023-02-04T13:24:18;5.60;56.00
18365;DHT22;9309;52.126;11.616;2023-02-04T13:26:44;5.40;57.10
18365;DHT22;9309;52.126;11.616;2023-02-04T13:29:11;5.30;57.10
18365;DHT22;9309;52.126;11.616;2023-02-04T13:31:38;5.40;57.60
18365;DHT22;9309;52.126;11.616;2023-02-04T13:34:06;5.40;56.90
18365;DHT22;9309;52.126;11.616;2023-02-04T13:36:32;5.40;57.00
18365;DHT22;9309;52.126;11.616;2023-02-04T13:38:59;5.30;58.10
18365;DHT22;9309;52.126;11.616;2023-02-04T13:41:26;5.20;57.60
18365;DHT22;9309;52.126;11.616;2023-02-04T13:43:53;5.20;58.80
18365;DHT22;9309;52.126;11.616;2023-02-04T13:46:20;5.20;58.70
18365;DHT22;9309;52.126;11.616;2023-02-04T13:48:46;5.30;57.40
18365;DHT22;9309;52.126;11.616;2023-02-04T13:51:16;5.30;59.00
18365;DHT22;9309;52.126;11.616;2023-02-04T13:53:43;5.50;58.30
18365;DHT22;9309;52.126;11.616;2023-02-04T13:56:09;5.70;56.50
18365;DHT22;9309;52.126;11.616;2023-02-04T13:58:36;5.80;56.30
18365;DHT22;9309;52.126;11.616;2023-02-04T14:01:03;5.90;56.40
18365;DHT22;9309;52.126;11.616;2023-02-04T14:03:29;6.30;55.80
18365;DHT22;9309;52.126;11.616;2023-02-04T14:05:56;6.60;55.70
18365;DHT22;9309;52.126;11.616;2023-02-04T14:08:24;6.60;53.00
18365;DHT22;9309;52.126;11.616;2023-02-04T14:10:51;6.10;53.50
18365;DHT22;9309;52.126;11.616;2023-02-04T14:13:17;5.50;56.70
18365;DHT22;9309;52.126;11.616;2023-02-04T14:15:44;5.50;56.90
18365;DHT22;9309;52.126;11.616;2023-02-04T14:18:10;5.20;60.00
18365;DHT22;9309;52.126;11.616;2023-02-04T14:20:37;5.20;60.30
18365;DHT22;9309;52.126;11.616;2023-02-04T14:23:05;5.80;58.70
18365;DHT22;9309;52.126;11.616;2023-02-04T14:25:33;8.00;53.60
18365;DHT22;9309;52.126;11.616;2023-02-04T14:27:59;10.40;47.10
18365;DHT22;9309;52.126;11.616;2023-02-04T14:30:27;11.80;42.40
18365;DHT22;9309;52.126;11.616;2023-02-04T14:32:54;11.80;41.40
18365;DHT22;9309;52.126;11.616;2023-02-04T14:35:22;10.90;43.40
18365;DHT22;9309;52.126;11.616;2023-02-04T14:37:49;9.90;46.70
18365;DHT22;9309;52.126;11.616;2023-02-04T14:40:16;10.40;45.90
18365;DHT22;9309;52.126;11.616;2023-02-04T14:42:45;9.40;46.30
18365;DHT22;9309;52.126;11.616;2023-02-04T14:45:13;8.60;48.40
18365;DHT22;9309;52.126;11.616;2023-02-04T14:47:40;7.50;50.60
18365;DHT22;9309;52.126;11.616;2023-02-04T14:50:10;6.40;53.40
18365;DHT22;9309;52.126;11.616;2023-02-04T14:52:37;6.00;55.80
18365;DHT22;9309;52.126;11.616;2023-02-04T14:55:04;5.50;58.00
18365;DHT22;9309;52.126;11.616;2023-02-04T14:57:30;5.20;58.80
18365;DHT22;9309;52.126;11.616;2023-02-04T14:59:58;4.90;59.60
18365;DHT22;9309;52.126;11.616;2023-02-04T15:02:25;4.90;60.80
18365;DHT22;9309;52.126;11.616;2023-02-04T15:04:51;5.10;60.80
18365;DHT22;9309;52.126;11.616;2023-02-04T15:07:18;4.80;60.80
18365;DHT22;9309;52.126;11.616;2023-02-04T15:09:45;4.60;61.50
18365;DHT22;9309;52.126;11.616;2023-02-04T15:12:12;4.60;61.30
18365;DHT22;9309;52.126;11.616;2023-02-04T15:14:39;4.50;61.70
18365;DHT22;9309;52.126;11.616;2023-02-04T15:17:07;4.40;60.40
18365;DHT22;9309;52.126;11.616;2023-02-04T15:19:33;4.20;62.10
18365;DHT22;9309;52.126;11.616;2023-02-04T15:22:00;4.20;63.20
18365;DHT22;9309;52.126;11.616;2023-02-04T15:24:28;4.10;63.30
18365;DHT22;9309;52.126;11.616;2023-02-04T15:26:54;4.10;63.70
18365;DHT22;9309;52.126;11.616;2023-02-04T15:29:21;4.20;64.00
18365;DHT22;9309;52.126;11.616;2023-02-04T15:31:48;4.10;64.70
18365;DHT22;9309;52.126;11.616;2023-02-04T15:34:16;4.10;64.50
18365;DHT22;9309;52.126;11.616;2023-02-04T15:36:42;4.00;64.80
18365;DHT22;9309;52.126;11.616;2023-02-04T15:39:09;3.80;65.70
18365;DHT22;9309;52.126;11.616;2023-02-04T15:41:36;3.70;66.90
18365;DHT22;9309;52.126;11.616;2023-02-04T15:44:11;3.60;66.60
18365;DHT22;9309;52.126;11.616;2023-02-04T15:46:38;3.60;67.00
18365;DHT22;9309;52.126;11.616;2023-02-04T15:49:04;3.60;68.00